createdAt,value
2019-06-08T00:00:13.233Z,97262.28
2019-06-08T00:05:20.940Z,97271.30
2019-06-08T00:10:27.647Z,97286.19
2019-06-08T00:15:33.793Z,97287.91
2019-06-08T00:20:40.202Z,97264.50
2019-06-08T00:25:46.570Z,97277.96
2019-06-08T00:30:52.735Z,97290.31
2019-06-08T00:35:59.646Z,97297.84
2019-06-08T00:41:06.119Z,97296.20
2019-06-08T00:46:12.906Z,97288.86
2019-06-08T00:51:21.014Z,97300.39
2019-06-08T00:56:28.126Z,97308.79
2019-06-08T01:01:35.223Z,97324.94
2019-06-08T01:06:41.615Z,97326.50
2019-06-08T01:11:48.172Z,97316.20
2019-06-08T01:16:55.138Z,97332.36
2019-06-08T01:22:01.607Z,97322.75
2019-06-08T01:27:07.810Z,97321.30
2019-06-08T01:32:14.549Z,97332.78
2019-06-08T01:37:22.858Z,97317.44
2019-06-08T01:42:29.775Z,97310.73
2019-06-08T01:47:36.183Z,97291.98
2019-06-08T01:52:42.591Z,97294.35
2019-06-08T01:57:49.219Z,97315.53
2019-06-08T02:02:56.010Z,97346.55
2019-06-08T02:08:02.713Z,97340.81
2019-06-08T02:13:09.514Z,97358.80
2019-06-08T02:18:16.639Z,97359.75
2019-06-08T02:23:22.807Z,97361.05
2019-06-08T02:28:29.449Z,97371.89
2019-06-08T02:33:37.234Z,97397.19
2019-06-08T02:38:44.187Z,97401.98
2019-06-08T02:43:51.391Z,97394.67
2019-06-08T02:49:04.054Z,97396.58
2019-06-08T02:54:06.620Z,97407.91
2019-06-08T02:59:14.783Z,97426.53
2019-06-08T03:04:23.969Z,97424.98
2019-06-08T03:09:32.458Z,97419.67
2019-06-08T03:14:42.131Z,97418.29
2019-06-08T03:19:48.651Z,97428.47
2019-06-08T03:24:54.820Z,97439.33
2019-06-08T03:30:15.149Z,97435.42
2019-06-08T03:35:09.414Z,97447.53
2019-06-08T03:40:15.953Z,97450.50
2019-06-08T03:45:22.563Z,97462.61
2019-06-08T03:50:28.852Z,97471.53
2019-06-08T03:55:35.498Z,97493.89
2019-06-08T04:00:42.434Z,97482.05
2019-06-08T04:05:50.089Z,97484.39
2019-06-08T04:10:56.474Z,97507.64
2019-06-08T04:16:06.266Z,97505.56
2019-06-08T04:21:15.544Z,97500.53
2019-06-08T04:26:58.675Z,97504.31
2019-06-08T04:32:05.045Z,97510.77
2019-06-08T04:37:15.749Z,97509.95
2019-06-08T04:42:20.141Z,97515.88
2019-06-08T04:47:26.620Z,97522.88
2019-06-08T04:52:32.982Z,97532.96
2019-06-08T04:57:41.881Z,97546.67
2019-06-08T05:02:50.380Z,97552.38
2019-06-08T05:07:56.335Z,97565.73
2019-06-08T05:13:03.038Z,97570.95
2019-06-08T05:18:09.423Z,97585.03
2019-06-08T05:23:15.931Z,97592.56
2019-06-08T05:28:22.718Z,97590.15
2019-06-08T05:33:28.864Z,97602.20
2019-06-08T05:38:35.761Z,97609.39
2019-06-08T05:43:43.523Z,97619.11
2019-06-08T05:48:50.522Z,97628.56
2019-06-08T05:53:56.856Z,97631.88
2019-06-08T05:59:03.855Z,97648.66
2019-06-08T06:04:10.657Z,97650.11
2019-06-08T06:09:17.087Z,97656.13
2019-06-08T06:14:23.712Z,97660.27
2019-06-08T06:19:30.098Z,97666.04
2019-06-08T06:24:36.377Z,97658.20
2019-06-08T06:29:43.499Z,97664.98
2019-06-08T06:34:50.060Z,97678.38
2019-06-08T06:39:56.523Z,97685.13
2019-06-08T06:45:02.710Z,97693.03
2019-06-08T06:50:09.206Z,97693.30
2019-06-08T06:55:15.576Z,97696.34
2019-06-08T07:00:31.343Z,97703.31
2019-06-08T07:05:37.685Z,97717.33
2019-06-08T07:10:44.587Z,97717.38
2019-06-08T07:15:55.995Z,97721.61
2019-06-08T07:21:00.449Z,97729.09
2019-06-08T07:26:07.104Z,97738.13
2019-06-08T07:31:13.192Z,97736.12
2019-06-08T07:36:19.554Z,97743.80
2019-06-08T07:41:25.850Z,97738.26
2019-06-08T07:46:31.950Z,97739.55
2019-06-08T07:51:38.392Z,97739.91
2019-06-08T07:56:46.077Z,97748.17
2019-06-08T08:01:53.991Z,97753.04
2019-06-08T08:07:01.032Z,97744.91
2019-06-08T08:12:07.508Z,97751.98
2019-06-08T08:17:18.885Z,97751.09
2019-06-08T08:22:29.600Z,97752.22
2019-06-08T08:27:37.798Z,97755.95
2019-06-08T08:32:52.703Z,97755.17
2019-06-08T08:38:03.020Z,97753.87
2019-06-08T08:43:09.410Z,97761.67
2019-06-08T08:48:25.390Z,97758.95
2019-06-08T08:53:24.080Z,97765.79
2019-06-08T08:58:30.725Z,97755.94
2019-06-08T09:03:39.372Z,97765.65
2019-06-08T09:08:45.264Z,97766.55
2019-06-08T09:13:52.389Z,97765.93
2019-06-08T09:19:03.993Z,97778.26
2019-06-08T09:24:07.896Z,97769.95
2019-06-08T09:29:14.483Z,97777.66
2019-06-08T09:34:21.073Z,97778.64
2019-06-08T09:39:28.660Z,97780.82
2019-06-08T09:44:37.647Z,97789.38
2019-06-08T09:49:44.605Z,97797.11
2019-06-08T09:54:54.164Z,97795.17
2019-06-08T10:00:04.363Z,97795.67
2019-06-08T10:05:08.053Z,97791.48
2019-06-08T10:10:14.764Z,97798.80
2019-06-08T10:15:20.944Z,97805.80
2019-06-08T10:20:28.796Z,97809.28
2019-06-08T10:25:38.381Z,97804.22
2019-06-08T10:30:43.797Z,97800.34
2019-06-08T10:35:49.966Z,97790.11
2019-06-08T10:41:12.042Z,97789.55
2019-06-08T10:46:16.685Z,97784.30
2019-06-08T10:51:19.487Z,97779.31
2019-06-08T10:56:28.390Z,97784.41
2019-06-08T11:01:34.166Z,97794.27
2019-06-08T11:06:40.980Z,97781.84
2019-06-08T11:11:48.273Z,97787.52
2019-06-08T11:16:54.560Z,97777.64
2019-06-08T11:22:03.740Z,97768.17
2019-06-08T11:27:12.493Z,97772.34
2019-06-08T11:32:18.369Z,97761.95
2019-06-08T11:37:25.093Z,97767.66
2019-06-08T11:42:31.281Z,97772.77
2019-06-08T11:47:39.172Z,97764.50
2019-06-08T11:52:45.277Z,97758.84
2019-06-08T11:57:51.603Z,97756.88
2019-06-08T12:02:58.246Z,97758.88
2019-06-08T12:08:04.899Z,97757.89
2019-06-08T12:13:13.212Z,97744.66
2019-06-08T12:18:20.028Z,97751.03
2019-06-08T12:23:26.794Z,97752.48
2019-06-08T12:28:33.319Z,97742.22
2019-06-08T12:33:39.688Z,97737.29
2019-06-08T12:38:48.558Z,97727.69
2019-06-08T12:43:54.591Z,97733.94
2019-06-08T12:49:00.917Z,97733.64
2019-06-08T12:59:23.096Z,97736.40
2019-06-08T13:04:29.203Z,97735.44
2019-06-08T13:09:37.962Z,97727.73
2019-06-08T13:14:43.195Z,97738.61
2019-06-08T13:19:50.019Z,97730.40
2019-06-08T13:24:56.116Z,97738.66
2019-06-08T13:30:03.150Z,97728.20
2019-06-08T13:35:10.422Z,97731.92
2019-06-08T13:40:20.093Z,97741.71
2019-06-08T13:45:27.825Z,97734.57
2019-06-08T13:50:34.263Z,97733.16
2019-06-08T13:55:53.336Z,97734.73
2019-06-08T14:00:48.760Z,97733.64
2019-06-08T14:05:54.940Z,97718.19
2019-06-08T14:11:01.398Z,97719.04
2019-06-08T14:16:08.890Z,97713.94
2019-06-08T14:21:25.755Z,97718.84
2019-06-08T14:26:25.988Z,97730.09
2019-06-08T14:31:32.321Z,97712.20
2019-06-08T14:36:40.974Z,97705.20
2019-06-08T14:41:47.529Z,97714.84
2019-06-08T14:46:54.983Z,97708.00
2019-06-08T14:52:01.375Z,97709.56
2019-06-08T14:57:07.961Z,97709.55
2019-06-08T15:02:14.668Z,97695.98
2019-06-08T15:07:23.425Z,97702.49
2019-06-08T15:12:31.319Z,97696.22
2019-06-08T15:17:37.945Z,97695.24
2019-06-08T15:22:44.615Z,97687.78
2019-06-08T15:27:51.405Z,97678.17
2019-06-08T15:32:58.859Z,97690.99
2019-06-08T15:38:05.398Z,97678.34
2019-06-08T15:43:12.062Z,97676.48
2019-06-08T15:48:20.404Z,97669.58
2019-06-08T15:53:29.679Z,97665.00
2019-06-08T15:58:35.056Z,97666.10
2019-06-08T16:03:41.395Z,97661.16
2019-06-08T16:08:47.884Z,97655.45
2019-06-08T16:13:54.907Z,97656.33
2019-06-08T16:19:01.468Z,97656.23
2019-06-08T16:24:07.698Z,97652.78
2019-06-08T16:29:14.129Z,97646.70
2019-06-08T16:34:20.583Z,97650.37
2019-06-08T16:39:26.988Z,97658.63
2019-06-08T16:44:34.296Z,97652.86
2019-06-08T16:49:40.679Z,97650.70
2019-06-08T16:54:47.473Z,97655.88
2019-06-08T16:59:53.922Z,97656.91
2019-06-08T17:04:59.973Z,97660.59
2019-06-08T17:10:06.743Z,97661.58
2019-06-08T17:15:14.112Z,97665.91
2019-06-08T17:20:20.346Z,97658.19
2019-06-08T17:25:26.798Z,97662.36
2019-06-08T17:30:35.463Z,97655.41
2019-06-08T17:35:42.488Z,97658.12
2019-06-08T17:40:49.190Z,97657.02
2019-06-08T17:45:55.504Z,97654.15
2019-06-08T17:51:02.402Z,97657.64
2019-06-08T17:56:09.189Z,97653.94
2019-06-08T18:01:16.176Z,97652.35
2019-06-08T18:06:23.537Z,97650.67
2019-06-08T18:11:29.927Z,97646.52
2019-06-08T18:16:38.959Z,97650.61
2019-06-08T18:21:44.594Z,97650.47
2019-06-08T18:26:53.295Z,97649.27
2019-06-08T18:31:59.458Z,97654.00
2019-06-08T18:37:08.412Z,97649.60
2019-06-08T18:42:14.612Z,97655.55
2019-06-08T18:47:20.783Z,97655.41
2019-06-08T18:52:28.251Z,97654.80
2019-06-08T18:57:35.401Z,97658.84
2019-06-08T19:02:44.906Z,97655.97
2019-06-08T19:07:52.240Z,97666.33
2019-06-08T19:12:58.684Z,97671.80
2019-06-08T19:18:07.936Z,97672.48
2019-06-08T19:23:13.390Z,97674.23
2019-06-08T19:28:35.282Z,97688.58
2019-06-08T19:33:28.153Z,97689.72
2019-06-08T19:38:34.627Z,97696.79
2019-06-08T19:43:42.973Z,97699.81
2019-06-08T19:48:54.292Z,97705.19
2019-06-08T19:53:58.373Z,97703.58
2019-06-08T19:59:06.249Z,97713.13
2019-06-08T20:04:13.020Z,97717.23
2019-06-08T20:09:19.434Z,97714.33
2019-06-08T20:14:26.651Z,97719.69
2019-06-08T20:19:32.980Z,97719.92
2019-06-08T20:24:39.342Z,97710.48
2019-06-08T20:29:47.846Z,97713.81
2019-06-08T20:34:53.837Z,97719.69
2019-06-08T20:40:10.269Z,97724.63
2019-06-08T20:45:08.527Z,97719.77
2019-06-08T20:50:14.811Z,97719.06
2019-06-08T20:55:21.410Z,97724.31
2019-06-08T21:00:28.288Z,97719.25
2019-06-08T21:05:34.750Z,97716.28
2019-06-08T21:10:41.105Z,97735.36
2019-06-08T21:15:52.600Z,97728.55
2019-06-08T21:20:58.130Z,97730.31
2019-06-08T21:26:04.367Z,97725.31
2019-06-08T21:31:10.728Z,97730.01
2019-06-08T21:36:18.198Z,97736.91
2019-06-08T21:41:24.422Z,97736.61
2019-06-08T21:46:31.411Z,97742.81
2019-06-08T21:51:38.347Z,97741.91
2019-06-08T21:56:44.435Z,97738.14
2019-06-08T22:01:53.042Z,97737.44
2019-06-08T22:07:01.135Z,97735.80
2019-06-08T22:12:07.257Z,97738.83
2019-06-08T22:17:15.962Z,97742.82
2019-06-08T22:22:21.825Z,97742.42
2019-06-08T22:27:28.369Z,97748.91
2019-06-08T22:32:35.118Z,97747.02
2019-06-08T22:37:42.043Z,97747.55
2019-06-08T22:42:48.255Z,97751.87
2019-06-08T22:47:57.478Z,97749.93
2019-06-08T22:53:03.963Z,97756.86
2019-06-08T22:58:10.811Z,97752.86
2019-06-08T23:03:18.425Z,97746.28
2019-06-08T23:08:25.609Z,97761.84
2019-06-08T23:13:32.059Z,97758.42
2019-06-08T23:18:38.547Z,97754.83
2019-06-08T23:23:47.470Z,97763.77
2019-06-08T23:28:53.521Z,97765.24
2019-06-08T23:34:03.920Z,97762.28
2019-06-08T23:39:09.411Z,97772.34
2019-06-08T23:44:17.613Z,97773.58
2019-06-08T23:49:24.454Z,97776.86
2019-06-08T23:54:30.980Z,97773.47
2019-06-08T23:59:37.794Z,97767.72
